createdAt,value
2023-03-13T00:01:42.076Z,101592.25
2023-03-13T00:04:10.348Z,101591.81
2023-03-13T00:06:40.156Z,101595.90
2023-03-13T00:09:11.427Z,101598.39
2023-03-13T00:11:40.094Z,101596.35
2023-03-13T00:14:09.092Z,101594.77
2023-03-13T00:16:39.772Z,101593.70
2023-03-13T00:19:09.277Z,101591.48
2023-03-13T00:21:41.575Z,101591.05
2023-03-13T00:24:12.475Z,101588.89
2023-03-13T00:26:40.735Z,101593.79
2023-03-13T00:29:09.020Z,101595.40
2023-03-13T00:31:37.763Z,101594.98
2023-03-13T00:34:06.208Z,101596.34
2023-03-13T00:36:36.065Z,101598.73
2023-03-13T00:39:06.659Z,101597.66
2023-03-13T00:41:37.650Z,101595.71
2023-03-13T00:44:06.870Z,101593.52
2023-03-13T00:46:36.155Z,101587.35
2023-03-13T00:49:05.311Z,101587.27
2023-03-13T00:51:35.793Z,101584.75
2023-03-13T00:54:05.151Z,101585.05
2023-03-13T00:56:34.961Z,101591.60
2023-03-13T00:59:03.546Z,101593.75
2023-03-13T01:01:34.723Z,101587.06
2023-03-13T01:04:11.070Z,101581.98
2023-03-13T01:06:43.166Z,101582.90
2023-03-13T01:09:14.603Z,101583.42
2023-03-13T01:11:45.402Z,101581.15
2023-03-13T01:14:17.504Z,101579.52
2023-03-13T01:16:46.396Z,101577.64
2023-03-13T01:19:16.829Z,101582.48
2023-03-13T01:21:47.221Z,101580.39
2023-03-13T01:24:17.073Z,101578.73
2023-03-13T01:26:45.366Z,101580.90
2023-03-13T01:29:14.441Z,101575.52
2023-03-13T01:31:43.048Z,101583.79
2023-03-13T01:34:11.673Z,101584.33
2023-03-13T01:36:40.135Z,101589.44
2023-03-13T01:39:08.723Z,101593.36
2023-03-13T01:41:38.246Z,101596.19
2023-03-13T01:44:21.451Z,101598.02
2023-03-13T01:46:50.497Z,101600.73
2023-03-13T01:49:33.628Z,101605.19
2023-03-13T01:52:17.288Z,101613.85
2023-03-13T01:55:02.877Z,101614.41
2023-03-13T01:57:36.887Z,101607.77
2023-03-13T02:00:16.705Z,101611.59
2023-03-13T02:02:49.083Z,101608.73
2023-03-13T02:05:21.999Z,101614.20
2023-03-13T02:07:53.552Z,101618.94
2023-03-13T02:10:23.472Z,101631.63
2023-03-13T02:12:52.656Z,101632.36
2023-03-13T02:15:25.029Z,101625.70
2023-03-13T02:17:55.086Z,101628.00
2023-03-13T02:20:23.837Z,101628.55
2023-03-13T02:23:28.166Z,101631.95
2023-03-13T02:25:56.960Z,101635.02
2023-03-13T02:28:34.091Z,101640.83
2023-03-13T02:31:04.112Z,101642.79
2023-03-13T02:33:41.524Z,101649.48
2023-03-13T02:36:14.875Z,101654.41
2023-03-13T02:38:51.859Z,101660.45
2023-03-13T02:41:23.204Z,101661.05
2023-03-13T02:43:52.916Z,101662.48
2023-03-13T02:46:21.950Z,101660.58
2023-03-13T02:48:56.224Z,101667.09
2023-03-13T02:51:46.211Z,101673.11
2023-03-13T02:54:25.122Z,101676.49
2023-03-13T02:56:57.808Z,101680.44
2023-03-13T02:59:26.889Z,101680.35
2023-03-13T03:01:55.507Z,101681.81
2023-03-13T03:04:25.825Z,101671.71
2023-03-13T03:06:58.296Z,101672.88
2023-03-13T03:09:26.688Z,101669.08
2023-03-13T03:11:58.452Z,101668.58
2023-03-13T03:14:29.199Z,101667.38
2023-03-13T03:16:58.401Z,101671.05
2023-03-13T03:19:27.495Z,101674.04
2023-03-13T03:21:55.992Z,101675.20
2023-03-13T03:24:24.259Z,101680.81
2023-03-13T03:26:52.640Z,101690.60
2023-03-13T03:29:30.031Z,101691.48
2023-03-13T03:31:59.088Z,101691.39
2023-03-13T03:34:27.923Z,101695.84
2023-03-13T03:36:56.723Z,101702.02
2023-03-13T03:39:25.307Z,101706.02
2023-03-13T03:41:55.168Z,101697.30
2023-03-13T03:44:23.817Z,101699.63
2023-03-13T03:46:56.465Z,101694.03
2023-03-13T03:49:25.599Z,101690.54
2023-03-13T03:51:54.703Z,101693.00
2023-03-13T03:54:28.307Z,101696.01
2023-03-13T03:56:57.096Z,101695.27
2023-03-13T03:59:26.201Z,101695.66
2023-03-13T04:02:04.865Z,101696.59
2023-03-13T04:04:34.436Z,101696.64
2023-03-13T04:07:16.121Z,101689.27
2023-03-13T04:09:45.224Z,101683.58
2023-03-13T04:12:22.100Z,101675.81
2023-03-13T04:14:53.453Z,101673.63
2023-03-13T04:17:23.271Z,101676.17
2023-03-13T04:19:52.171Z,101687.02
2023-03-13T04:22:20.858Z,101690.89
2023-03-13T04:24:53.028Z,101694.05
2023-03-13T04:27:22.740Z,101698.99
2023-03-13T04:29:52.558Z,101713.27
2023-03-13T04:32:56.400Z,101718.56
2023-03-13T04:35:44.842Z,101722.91
2023-03-13T04:38:19.318Z,101725.89
2023-03-13T04:41:06.225Z,101729.05
2023-03-13T04:43:54.975Z,101731.65
2023-03-13T04:46:41.980Z,101729.77
2023-03-13T04:49:25.407Z,101729.45
2023-03-13T04:52:09.405Z,101728.76
2023-03-13T04:54:58.419Z,101729.29
2023-03-13T04:57:45.418Z,101730.30
2023-03-13T05:00:42.862Z,101735.02
2023-03-13T05:03:19.537Z,101737.13
2023-03-13T05:06:07.451Z,101737.61
2023-03-13T05:08:41.168Z,101742.16
2023-03-13T05:11:18.560Z,101747.11
2023-03-13T05:14:09.686Z,101752.09
2023-03-13T05:16:47.864Z,101748.84
2023-03-13T05:19:48.801Z,101748.66
2023-03-13T05:22:31.622Z,101750.70
2023-03-13T05:25:21.183Z,101749.33
2023-03-13T05:28:17.703Z,101747.98
2023-03-13T05:30:48.780Z,101745.77
2023-03-13T05:33:49.476Z,101747.58
2023-03-13T05:36:27.173Z,101745.20
2023-03-13T05:39:12.847Z,101742.48
2023-03-13T05:41:50.645Z,101738.89
2023-03-13T05:44:38.473Z,101735.88
2023-03-13T05:47:27.124Z,101736.69
2023-03-13T05:50:14.544Z,101735.21
2023-03-13T05:53:15.471Z,101737.60
2023-03-13T05:56:07.444Z,101729.94
2023-03-13T05:58:38.427Z,101730.68
2023-03-13T06:01:35.877Z,101737.54
2023-03-13T06:04:10.607Z,101738.05
2023-03-13T06:06:40.630Z,101733.55
2023-03-13T06:09:11.879Z,101738.52
2023-03-13T06:11:41.898Z,101736.73
2023-03-13T06:14:10.691Z,101730.84
2023-03-13T06:16:48.132Z,101735.77
2023-03-13T06:19:20.144Z,101737.96
2023-03-13T06:21:48.633Z,101739.64
2023-03-13T06:24:16.916Z,101734.80
2023-03-13T06:26:45.241Z,101726.52
2023-03-13T06:29:13.383Z,101725.85
2023-03-13T06:31:41.979Z,101724.91
2023-03-13T06:34:12.558Z,101725.81
2023-03-13T06:36:41.142Z,101726.73
2023-03-13T06:39:10.223Z,101723.83
2023-03-13T06:41:38.578Z,101722.56
2023-03-13T06:44:06.960Z,101727.32
2023-03-13T06:46:35.199Z,101730.61
2023-03-13T06:49:06.098Z,101725.74
2023-03-13T06:51:34.485Z,101725.64
2023-03-13T06:54:03.912Z,101717.70
2023-03-13T06:56:32.569Z,101709.84
2023-03-13T06:59:01.259Z,101707.07
2023-03-13T07:01:29.497Z,101711.59
2023-03-13T07:03:58.046Z,101710.17
2023-03-13T07:06:27.335Z,101707.69
2023-03-13T07:08:55.720Z,101706.52
2023-03-13T07:11:25.331Z,101695.80
2023-03-13T07:14:10.120Z,101692.43
2023-03-13T07:16:45.775Z,101688.66
2023-03-13T07:19:15.405Z,101687.02
2023-03-13T07:21:44.449Z,101681.91
2023-03-13T07:24:12.990Z,101679.19
2023-03-13T07:26:51.208Z,101681.34
2023-03-13T07:29:22.914Z,101674.02
2023-03-13T07:31:51.427Z,101675.14
2023-03-13T07:34:20.115Z,101678.49
2023-03-13T07:36:48.930Z,101670.52
2023-03-13T07:39:17.574Z,101663.80
2023-03-13T07:41:46.662Z,101668.31
2023-03-13T07:44:18.519Z,101670.04
2023-03-13T07:46:48.689Z,101669.44
2023-03-13T07:49:17.456Z,101665.67
2023-03-13T07:51:48.298Z,101662.10
2023-03-13T07:54:16.580Z,101656.36
2023-03-13T07:56:44.867Z,101655.66
2023-03-13T07:59:13.449Z,101654.48
2023-03-13T08:01:42.139Z,101650.45
2023-03-13T08:04:14.163Z,101649.52
2023-03-13T08:06:42.445Z,101646.27
2023-03-13T08:09:11.306Z,101651.35
2023-03-13T08:11:41.398Z,101655.57
2023-03-13T08:14:09.802Z,101649.47
2023-03-13T08:16:38.852Z,101655.73
2023-03-13T08:19:07.390Z,101646.68
2023-03-13T08:21:37.763Z,101639.83
2023-03-13T08:24:08.645Z,101633.77
2023-03-13T08:26:38.864Z,101639.63
2023-03-13T08:29:12.555Z,101637.00
2023-03-13T08:31:49.667Z,101628.92
2023-03-13T08:34:19.377Z,101631.61
2023-03-13T08:36:48.203Z,101634.63
2023-03-13T08:39:18.604Z,101639.84
2023-03-13T08:41:47.310Z,101628.91
2023-03-13T08:44:18.749Z,101618.97
2023-03-13T08:46:49.361Z,101614.73
2023-03-13T08:49:17.956Z,101598.04
2023-03-13T08:51:46.600Z,101602.71
2023-03-13T08:54:14.857Z,101597.20
2023-03-13T08:56:47.127Z,101590.73
2023-03-13T08:59:16.020Z,101584.99
2023-03-13T09:01:44.621Z,101583.27
2023-03-13T09:04:13.634Z,101574.42
2023-03-13T09:06:42.082Z,101573.48
2023-03-13T09:09:11.368Z,101582.61
2023-03-13T09:11:40.083Z,101575.65
2023-03-13T09:14:10.436Z,101578.10
2023-03-13T09:16:38.917Z,101580.31
2023-03-13T09:19:07.713Z,101567.93
2023-03-13T09:21:36.593Z,101559.19
2023-03-13T09:24:05.388Z,101568.02
2023-03-13T09:26:34.046Z,101567.20
2023-03-13T09:29:02.846Z,101571.33
2023-03-13T09:31:33.217Z,101571.58
2023-03-13T09:34:02.555Z,101569.70
2023-03-13T09:36:30.990Z,101561.90
2023-03-13T09:39:00.502Z,101558.57
2023-03-13T09:41:55.601Z,101551.37
2023-03-13T09:44:33.032Z,101556.48
2023-03-13T09:47:24.386Z,101549.39
2023-03-13T09:50:05.165Z,101548.36
2023-03-13T09:52:44.002Z,101532.60
2023-03-13T09:55:21.092Z,101534.73
2023-03-13T09:58:20.667Z,101526.73
2023-03-13T10:00:55.014Z,101529.48
2023-03-13T10:03:29.210Z,101529.02
2023-03-13T10:06:04.532Z,101513.23
2023-03-13T10:08:34.568Z,101516.24
2023-03-13T10:11:21.467Z,101511.98
2023-03-13T10:14:06.529Z,101519.48
2023-03-13T10:16:49.969Z,101508.38
2023-03-13T10:19:19.482Z,101511.48
2023-03-13T10:21:53.277Z,101506.15
2023-03-13T10:24:34.052Z,101496.89
2023-03-13T10:27:02.429Z,101495.89
2023-03-13T10:29:31.942Z,101486.64
2023-03-13T10:32:02.002Z,101484.46
2023-03-13T10:34:53.473Z,101476.80
2023-03-13T10:37:28.199Z,101479.30
2023-03-13T10:40:12.118Z,101475.93
2023-03-13T10:42:45.874Z,101477.19
2023-03-13T10:45:21.617Z,101470.52
2023-03-13T10:47:55.907Z,101465.39
2023-03-13T10:50:26.653Z,101457.08
2023-03-13T10:52:55.349Z,101456.39
2023-03-13T10:55:26.184Z,101459.04
2023-03-13T10:58:00.718Z,101457.77
2023-03-13T11:00:39.025Z,101459.20
2023-03-13T11:03:18.216Z,101450.20
2023-03-13T11:05:56.976Z,101440.34
2023-03-13T11:08:28.677Z,101438.06
2023-03-13T11:11:00.405Z,101430.10
2023-03-13T11:13:43.825Z,101433.48
2023-03-13T11:16:29.447Z,101434.19
2023-03-13T11:19:13.573Z,101425.22
2023-03-13T11:22:01.335Z,101429.55
2023-03-13T11:24:55.040Z,101420.76
2023-03-13T11:27:48.896Z,101424.89
2023-03-13T11:30:20.050Z,101421.76
2023-03-13T11:32:55.858Z,101414.64
2023-03-13T11:35:50.805Z,101408.78
2023-03-13T11:38:28.284Z,101405.42
2023-03-13T11:41:13.630Z,101405.05
2023-03-13T11:43:57.083Z,101401.79
2023-03-13T11:46:57.706Z,101393.99
2023-03-13T11:49:41.763Z,101391.56
2023-03-13T11:53:01.737Z,101382.54
2023-03-13T11:55:42.569Z,101379.86
2023-03-13T11:58:45.043Z,101381.15
2023-03-13T12:01:18.193Z,101390.17
2023-03-13T12:03:52.704Z,101386.77
2023-03-13T12:06:36.907Z,101378.32
2023-03-13T12:09:20.631Z,101375.95
2023-03-13T12:12:04.843Z,101365.40
2023-03-13T12:14:37.885Z,101360.48
2023-03-13T12:17:13.204Z,101357.56
2023-03-13T12:19:58.503Z,101365.03
2023-03-13T12:22:35.869Z,101372.87
2023-03-13T12:25:13.264Z,101358.80
2023-03-13T12:27:47.727Z,101367.37
2023-03-13T12:30:41.308Z,101366.88
2023-03-13T12:33:18.934Z,101359.55
2023-03-13T12:36:02.315Z,101352.75
2023-03-13T12:38:40.184Z,101354.26
2023-03-13T12:41:14.073Z,101351.13
2023-03-13T12:43:49.724Z,101352.02
2023-03-13T12:46:23.166Z,101348.45
2023-03-13T12:49:27.811Z,101354.27
2023-03-13T12:52:18.629Z,101353.10
2023-03-13T12:54:47.221Z,101346.06
2023-03-13T12:57:21.358Z,101344.98
2023-03-13T12:59:56.684Z,101345.82
2023-03-13T13:02:29.154Z,101340.28
2023-03-13T13:05:01.729Z,101341.44
2023-03-13T13:07:33.454Z,101337.95
2023-03-13T13:10:11.085Z,101334.73
2023-03-13T13:12:47.968Z,101329.02
2023-03-13T13:15:26.993Z,101332.16
2023-03-13T13:18:16.456Z,101328.64
2023-03-13T13:20:50.225Z,101325.44
2023-03-13T13:23:34.084Z,101333.27
2023-03-13T13:26:33.959Z,101332.14
2023-03-13T13:29:11.309Z,101333.71
2023-03-13T13:31:58.925Z,101329.02
2023-03-13T13:34:34.766Z,101332.14
2023-03-13T13:37:23.418Z,101322.38
2023-03-13T13:39:54.415Z,101312.09
2023-03-13T13:42:32.679Z,101311.30
2023-03-13T13:45:14.566Z,101298.11
2023-03-13T13:47:46.939Z,101294.57
2023-03-13T13:50:25.561Z,101290.95
2023-03-13T13:53:34.461Z,101293.91
2023-03-13T13:56:10.527Z,101286.27
2023-03-13T13:58:44.279Z,101286.63
2023-03-13T14:01:17.059Z,101285.52
2023-03-13T14:03:45.515Z,101276.73
2023-03-13T14:06:44.072Z,101277.69
2023-03-13T14:09:29.238Z,101272.11
2023-03-13T14:11:58.032Z,101266.84
2023-03-13T14:14:26.418Z,101264.56
2023-03-13T14:16:59.215Z,101266.54
2023-03-13T14:19:30.713Z,101271.77
2023-03-13T14:22:00.888Z,101270.61
2023-03-13T14:24:29.691Z,101267.80
2023-03-13T14:26:58.069Z,101269.23
2023-03-13T14:29:27.028Z,101262.95
2023-03-13T14:31:59.855Z,101259.96
2023-03-13T14:34:31.458Z,101256.60
2023-03-13T14:37:17.306Z,101252.99
2023-03-13T14:39:48.941Z,101260.73
2023-03-13T14:42:19.220Z,101257.19
2023-03-13T14:44:50.481Z,101253.95
2023-03-13T14:47:31.081Z,101256.87
2023-03-13T14:50:04.619Z,101260.30
2023-03-13T14:52:33.350Z,101263.16
2023-03-13T14:55:05.679Z,101253.49
2023-03-13T14:57:35.204Z,101253.16
2023-03-13T15:00:33.932Z,101253.86
2023-03-13T15:03:19.009Z,101249.79
2023-03-13T15:06:04.175Z,101251.67
2023-03-13T15:08:33.486Z,101248.88
2023-03-13T15:11:02.177Z,101249.29
2023-03-13T15:13:32.118Z,101249.98
2023-03-13T15:16:01.512Z,101254.02
2023-03-13T15:18:33.155Z,101256.52
2023-03-13T15:21:10.958Z,101256.99
2023-03-13T15:23:41.071Z,101259.08
2023-03-13T15:26:09.269Z,101257.06
2023-03-13T15:28:37.638Z,101259.69
2023-03-13T15:31:06.536Z,101263.64
2023-03-13T15:33:35.025Z,101260.98
2023-03-13T15:36:04.026Z,101262.94
2023-03-13T15:38:32.507Z,101257.52
2023-03-13T15:41:00.995Z,101259.80
2023-03-13T15:43:29.397Z,101260.10
2023-03-13T15:45:57.786Z,101263.94
2023-03-13T15:48:28.624Z,101262.69
2023-03-13T15:50:59.810Z,101267.44
2023-03-13T15:53:30.844Z,101262.90
2023-03-13T15:56:01.544Z,101263.23
2023-03-13T15:58:30.542Z,101263.65
2023-03-13T16:00:59.246Z,101265.54
2023-03-13T16:03:29.142Z,101266.33
2023-03-13T16:05:57.819Z,101269.31
2023-03-13T16:08:36.681Z,101271.83
2023-03-13T16:11:06.160Z,101270.99
2023-03-13T16:13:34.657Z,101268.70
2023-03-13T16:16:03.137Z,101266.31
2023-03-13T16:18:31.319Z,101264.80
2023-03-13T16:20:59.701Z,101262.02
2023-03-13T16:23:27.884Z,101260.02
2023-03-13T16:25:56.308Z,101262.20
2023-03-13T16:28:24.547Z,101258.16
2023-03-13T16:30:52.860Z,101254.91
2023-03-13T16:33:21.419Z,101254.34
2023-03-13T16:35:49.874Z,101255.29
2023-03-13T16:38:20.757Z,101255.77
2023-03-13T16:40:49.337Z,101252.36
2023-03-13T16:43:17.616Z,101251.49
2023-03-13T16:45:46.818Z,101254.80
2023-03-13T16:48:19.380Z,101249.77
2023-03-13T16:50:47.582Z,101251.73
2023-03-13T16:53:16.179Z,101249.27
2023-03-13T16:55:44.857Z,101254.05
2023-03-13T16:58:13.447Z,101253.35
2023-03-13T17:00:41.932Z,101256.98
2023-03-13T17:03:10.420Z,101259.89
2023-03-13T17:05:38.907Z,101256.91
2023-03-13T17:08:07.302Z,101255.94
2023-03-13T17:10:36.088Z,101256.38
2023-03-13T17:13:05.708Z,101254.55
2023-03-13T17:15:34.098Z,101255.47
2023-03-13T17:18:02.781Z,101255.22
2023-03-13T17:20:32.181Z,101257.94
2023-03-13T17:23:01.348Z,101255.09
2023-03-13T17:25:30.234Z,101257.53
2023-03-13T17:27:58.454Z,101261.89
2023-03-13T17:30:30.437Z,101260.22
2023-03-13T17:33:01.054Z,101264.98
2023-03-13T17:35:29.643Z,101265.54
2023-03-13T17:37:58.246Z,101264.27
2023-03-13T17:40:29.668Z,101266.98
2023-03-13T17:42:58.799Z,101271.72
2023-03-13T17:45:27.271Z,101270.19
2023-03-13T17:47:56.350Z,101271.95
2023-03-13T17:50:27.346Z,101270.46
2023-03-13T17:52:56.410Z,101260.16
2023-03-13T17:55:25.235Z,101264.23
2023-03-13T17:57:53.917Z,101265.30
2023-03-13T18:00:31.835Z,101265.20
2023-03-13T18:03:00.438Z,101264.34
2023-03-13T18:05:29.084Z,101263.41
2023-03-13T18:07:57.957Z,101257.69
2023-03-13T18:10:29.844Z,101254.08
2023-03-13T18:12:58.441Z,101249.58
2023-03-13T18:15:27.228Z,101250.85
2023-03-13T18:17:55.516Z,101248.73
2023-03-13T18:20:27.201Z,101248.05
2023-03-13T18:22:59.664Z,101245.98
2023-03-13T18:25:29.552Z,101247.63
2023-03-13T18:27:58.675Z,101252.73
2023-03-13T18:30:28.282Z,101250.09
2023-03-13T18:32:56.596Z,101251.13
2023-03-13T18:35:25.346Z,101244.17
2023-03-13T18:37:53.838Z,101240.13
2023-03-13T18:40:27.465Z,101240.00
2023-03-13T18:42:56.032Z,101240.48
2023-03-13T18:45:26.507Z,101239.48
2023-03-13T18:47:55.168Z,101237.02
2023-03-13T18:50:27.530Z,101235.30
2023-03-13T18:53:00.516Z,101236.07
2023-03-13T18:55:31.364Z,101229.17
2023-03-13T18:57:59.637Z,101224.29
2023-03-13T19:00:30.538Z,101227.08
2023-03-13T19:02:58.968Z,101224.34
2023-03-13T19:05:27.968Z,101223.52
2023-03-13T19:07:56.455Z,101220.56
2023-03-13T19:10:28.188Z,101219.08
2023-03-13T19:12:57.223Z,101216.21
2023-03-13T19:15:29.133Z,101215.60
2023-03-13T19:18:02.639Z,101213.73
2023-03-13T19:20:31.601Z,101216.33
2023-03-13T19:23:01.014Z,101222.39
2023-03-13T19:25:29.788Z,101233.06
2023-03-13T19:27:58.064Z,101230.38
2023-03-13T19:30:26.994Z,101238.45
2023-03-13T19:32:55.301Z,101243.88
2023-03-13T19:35:23.685Z,101243.76
2023-03-13T19:37:52.126Z,101246.82
2023-03-13T19:40:28.989Z,101244.02
2023-03-13T19:42:57.580Z,101247.97
2023-03-13T19:45:28.015Z,101248.92
2023-03-13T19:47:56.698Z,101248.98
2023-03-13T19:50:29.930Z,101253.24
2023-03-13T19:52:58.276Z,101252.41
2023-03-13T19:55:26.654Z,101251.28
2023-03-13T19:57:55.142Z,101250.48
2023-03-13T20:00:28.063Z,101245.80
2023-03-13T20:02:56.440Z,101245.44
2023-03-13T20:05:28.995Z,101244.68
2023-03-13T20:07:57.586Z,101240.76
2023-03-13T20:10:25.862Z,101237.77
2023-03-13T20:12:54.475Z,101242.11
2023-03-13T20:15:22.838Z,101239.23
2023-03-13T20:17:51.335Z,101239.90
2023-03-13T20:20:19.814Z,101241.05
2023-03-13T20:22:47.994Z,101241.30
2023-03-13T20:25:16.383Z,101242.19
2023-03-13T20:27:44.773Z,101244.52
2023-03-13T20:30:13.464Z,101242.70
2023-03-13T20:32:53.000Z,101243.45
2023-03-13T20:35:28.367Z,101240.96
2023-03-13T20:37:59.998Z,101238.05
2023-03-13T20:40:28.907Z,101236.05
2023-03-13T20:42:58.360Z,101241.19
2023-03-13T20:45:30.271Z,101233.19
2023-03-13T20:47:59.158Z,101230.90
2023-03-13T20:50:28.058Z,101224.58
2023-03-13T20:52:56.440Z,101224.27
2023-03-13T20:55:25.026Z,101220.81
2023-03-13T20:57:53.732Z,101218.59
2023-03-13T21:00:23.449Z,101212.83
2023-03-13T21:02:53.926Z,101215.91
2023-03-13T21:05:22.243Z,101219.21
2023-03-13T21:07:50.629Z,101216.70
2023-03-13T21:10:19.640Z,101214.10
2023-03-13T21:12:48.012Z,101214.38
2023-03-13T21:15:16.709Z,101211.71
2023-03-13T21:17:45.296Z,101216.48
2023-03-13T21:20:14.285Z,101214.95
2023-03-13T21:22:43.805Z,101211.73
2023-03-13T21:25:13.234Z,101209.61
2023-03-13T21:27:44.065Z,101210.50
2023-03-13T21:30:17.546Z,101203.73
2023-03-13T21:32:46.363Z,101202.60
2023-03-13T21:35:15.484Z,101204.59
2023-03-13T21:37:44.239Z,101200.42
2023-03-13T21:40:13.361Z,101195.58
2023-03-13T21:42:42.235Z,101194.52
2023-03-13T21:45:11.927Z,101196.12
2023-03-13T21:47:40.639Z,101191.31
2023-03-13T21:50:10.328Z,101191.33
2023-03-13T21:52:41.367Z,101185.70
2023-03-13T21:55:13.342Z,101181.21
2023-03-13T21:57:41.863Z,101179.05
2023-03-13T22:00:14.350Z,101176.54
2023-03-13T22:02:44.275Z,101177.11
2023-03-13T22:05:15.906Z,101175.88
2023-03-13T22:07:45.524Z,101183.13
2023-03-13T22:10:14.256Z,101184.76
2023-03-13T22:12:42.694Z,101183.50
2023-03-13T22:15:11.514Z,101182.96
2023-03-13T22:17:39.683Z,101179.38
2023-03-13T22:20:10.803Z,101175.52
2023-03-13T22:22:40.326Z,101175.98
2023-03-13T22:25:09.226Z,101172.58
2023-03-13T22:27:37.716Z,101174.45
2023-03-13T22:30:06.813Z,101175.69
2023-03-13T22:32:35.212Z,101178.71
2023-03-13T22:35:07.414Z,101177.64
2023-03-13T22:37:36.144Z,101181.48
2023-03-13T22:40:05.637Z,101185.05
2023-03-13T22:42:34.052Z,101186.49
2023-03-13T22:45:02.961Z,101193.92
2023-03-13T22:47:32.764Z,101189.10
2023-03-13T22:50:00.943Z,101185.73
2023-03-13T22:52:31.070Z,101184.95
2023-03-13T22:54:59.569Z,101186.23
2023-03-13T22:57:29.884Z,101186.48
2023-03-13T22:59:59.392Z,101190.64
2023-03-13T23:02:28.103Z,101193.20
2023-03-13T23:04:58.671Z,101200.90
2023-03-13T23:07:31.307Z,101195.98
2023-03-13T23:09:59.802Z,101200.10
2023-03-13T23:12:30.932Z,101200.38
2023-03-13T23:15:02.531Z,101205.09
2023-03-13T23:17:32.843Z,101198.22
2023-03-13T23:20:10.840Z,101197.05
2023-03-13T23:22:45.615Z,101198.55
2023-03-13T23:25:14.350Z,101196.16
2023-03-13T23:27:42.831Z,101192.41
2023-03-13T23:30:14.484Z,101197.04
2023-03-13T23:32:46.116Z,101197.60
2023-03-13T23:35:16.927Z,101198.21
2023-03-13T23:37:49.489Z,101197.66
2023-03-13T23:40:18.163Z,101195.56
2023-03-13T23:42:48.239Z,101188.19
2023-03-13T23:45:18.139Z,101190.09
2023-03-13T23:47:46.688Z,101189.92
2023-03-13T23:50:16.265Z,101180.91
2023-03-13T23:52:44.480Z,101176.77
2023-03-13T23:55:13.069Z,101174.51
2023-03-13T23:57:41.662Z,101170.71
